Time;durP1;ratioP1;P1;durP2;ratioP2;P2;SDS_P1;SDS_P2;PMS_P1;PMS_P2;Temp;Humidity;BMP_temperature;BMP_pressure;BME280_temperature;BME280_humidity;BME280_pressure;Samples;Min_cycle;Max_cycle;Signal;HPM_P1;HPM_P2
2022/12/21 00:02:12;;;;;;;270.90;27.10;;;;;;;;;;4794026;29;21644;-71
2022/12/21 00:04:38;;;;;;;169.63;25.75;;;;;;;;;;4809237;29;20065;-71
2022/12/21 00:07:04;;;;;;;276.15;28.45;;;;;;;;;;4825676;29;20583;-71
2022/12/21 00:09:30;;;;;;;385.33;30.45;;;;;;;;;;4817717;29;20045;-72
2022/12/21 00:11:56;;;;;;;355.15;29.77;;;;;;;;;;4807260;29;20088;-71
2022/12/21 00:14:22;;;;;;;394.83;28.52;;;;;;;;;;4814008;29;20053;-71
2022/12/21 00:16:48;;;;;;;304.35;27.10;;;;;;;;;;4813497;29;20050;-71
2022/12/21 00:19:14;;;;;;;414.67;31.08;;;;;;;;;;4817799;29;20081;-71
2022/12/21 00:21:41;;;;;;;314.38;28.88;;;;;;;;;;4824265;29;20049;-71
2022/12/21 00:24:07;;;;;;;340.65;31.40;;;;;;;;;;4807690;29;20057;-71
2022/12/21 00:26:35;;;;;;;285.65;28.40;;;;;;;;;;4813609;29;20054;-71
2022/12/21 00:29:01;;;;;;;482.17;31.40;;;;;;;;;;4805530;29;20673;-71
2022/12/21 00:31:32;;;;;;;411.67;30.38;;;;;;;;;;4809837;29;20050;-71
2022/12/21 00:33:59;;;;;;;522.30;34.60;;;;;;;;;;4808328;29;20137;-71
2022/12/21 00:36:27;;;;;;;553.38;39.83;;;;;;;;;;4810206;29;20080;-71
2022/12/21 00:38:53;;;;;;;517.80;33.25;;;;;;;;;;4814289;29;20050;-71
2022/12/21 00:41:21;;;;;;;530.42;35.42;;;;;;;;;;4813627;29;20503;-72
2022/12/21 00:43:47;;;;;;;577.00;39.10;;;;;;;;;;4809747;29;20189;-71
2022/12/21 00:46:21;;;;;;;645.67;35.17;;;;;;;;;;4813142;29;20060;-71
2022/12/21 00:48:47;;;;;;;;;;;;;;;;;;4819173;29;20459;-71
2022/12/21 00:51:15;;;;;;;507.60;36.88;;;;;;;;;;4807558;29;19921;-71
2022/12/21 00:53:41;;;;;;;457.58;28.45;;;;;;;;;;4817597;29;20392;-71
2022/12/21 00:56:08;;;;;;;664.38;44.20;;;;;;;;;;4810602;29;20048;-72
2022/12/21 00:58:35;;;;;;;343.45;24.40;;;;;;;;;;4806184;29;20057;-71
2022/12/21 01:01:05;;;;;;;457.00;29.15;;;;;;;;;;4806905;29;20056;-71
2022/12/21 01:03:31;;;;;;;581.38;35.40;;;;;;;;;;4807215;29;20078;-72
2022/12/21 01:05:57;;;;;;;381.02;27.73;;;;;;;;;;4811982;29;20103;-71
2022/12/21 01:08:24;;;;;;;225.27;23.58;;;;;;;;;;4811807;29;20088;-71
2022/12/21 01:10:56;;;;;;;192.93;20.92;;;;;;;;;;4824218;29;20102;-71
2022/12/21 01:13:22;;;;;;;261.17;22.98;;;;;;;;;;4807554;29;20648;-71
2022/12/21 01:15:48;;;;;;;130.32;19.20;;;;;;;;;;4812020;29;20045;-72
2022/12/21 01:18:15;;;;;;;212.05;24.00;;;;;;;;;;4825408;29;20593;-72
2022/12/21 01:20:45;;;;;;;299.65;25.50;;;;;;;;;;4795295;29;20060;-70
2022/12/21 01:23:11;;;;;;;236.88;22.45;;;;;;;;;;4822754;29;20045;-70
2022/12/21 01:25:37;;;;;;;226.50;22.73;;;;;;;;;;4824093;29;20719;-70
2022/12/21 01:28:04;;;;;;;499.92;33.03;;;;;;;;;;4827911;29;20041;-72
2022/12/21 01:30:30;;;;;;;285.08;26.50;;;;;;;;;;4811443;29;21389;-71
2022/12/21 01:32:56;;;;;;;281.50;28.88;;;;;;;;;;4824139;29;20528;-72
2022/12/21 01:35:22;;;;;;;206.93;23.33;;;;;;;;;;4793229;29;20049;-71
2022/12/21 01:37:48;;;;;;;143.02;19.52;;;;;;;;;;4794100;29;20143;-72
2022/12/21 01:40:14;;;;;;;211.68;22.08;;;;;;;;;;4823449;29;20069;-72
2022/12/21 01:42:40;;;;;;;215.68;24.05;;;;;;;;;;4823554;29;20091;-72
2022/12/21 01:45:15;;;;;;;116.05;20.58;;;;;;;;;;4825685;29;20054;-72
2022/12/21 01:47:41;;;;;;;165.77;20.27;;;;;;;;;;4822171;29;20055;-72
2022/12/21 01:50:19;;;;;;;204.02;22.45;;;;;;;;;;4797539;29;20172;-71
2022/12/21 01:52:45;;;;;;;117.18;19.00;;;;;;;;;;4807557;29;20053;-72
2022/12/21 01:55:11;;;;;;;174.05;21.92;;;;;;;;;;4808649;29;20433;-71
2022/12/21 01:57:38;;;;;;;214.80;25.85;;;;;;;;;;4808238;29;20069;-71
2022/12/21 02:00:05;;;;;;;170.68;22.23;;;;;;;;;;4809888;29;20376;-72
2022/12/21 02:02:34;;;;;;;247.95;23.27;;;;;;;;;;4810575;29;20054;-72
2022/12/21 02:05:04;;;;;;;183.18;23.13;;;;;;;;;;4826646;29;20041;-72
2022/12/21 02:07:30;;;;;;;254.63;25.10;;;;;;;;;;4807886;29;21040;-71
2022/12/21 02:09:57;;;;;;;211.95;23.58;;;;;;;;;;4809638;29;20384;-71
2022/12/21 02:12:23;;;;;;;191.68;21.75;;;;;;;;;;4805131;29;20037;-71
2022/12/21 02:14:49;;;;;;;138.30;22.83;;;;;;;;;;4822871;29;21959;-71
2022/12/21 02:17:15;;;;;;;269.88;27.38;;;;;;;;;;4808950;29;20384;-71
2022/12/21 02:20:00;;;;;;;278.13;27.60;;;;;;;;;;4806300;29;20435;-71
2022/12/21 02:22:26;;;;;;;288.92;24.73;;;;;;;;;;4824709;29;20046;-71
2022/12/21 02:25:05;;;;;;;337.25;26.60;;;;;;;;;;4809836;29;20114;-71
2022/12/21 02:27:31;;;;;;;290.95;27.38;;;;;;;;;;4815165;29;20529;-71
2022/12/21 02:30:03;;;;;;;311.13;24.42;;;;;;;;;;4823172;29;20939;-71
2022/12/21 02:32:35;;;;;;;204.55;25.00;;;;;;;;;;4815486;29;20386;-71
2022/12/21 02:35:24;;;;;;;338.92;29.27;;;;;;;;;;4826287;29;20418;-72
2022/12/21 02:38:03;;;;;;;244.82;24.92;;;;;;;;;;4798423;29;20096;-71
2022/12/21 02:40:47;;;;;;;205.82;20.90;;;;;;;;;;4817931;29;20053;-71
2022/12/21 02:46:03;;;;;;;244.07;25.25;;;;;;;;;;4828358;29;19934;-71
2022/12/21 02:48:29;;;;;;;223.60;21.48;;;;;;;;;;4813317;29;20057;-71
2022/12/21 02:50:57;;;;;;;231.43;25.85;;;;;;;;;;4810159;29;20057;-71
2022/12/21 02:53:29;;;;;;;243.18;27.58;;;;;;;;;;4813854;29;20052;-72
2022/12/21 02:55:55;;;;;;;202.27;22.13;;;;;;;;;;4812018;29;20080;-72
2022/12/21 02:58:22;;;;;;;207.82;20.02;;;;;;;;;;4821405;29;20042;-72
2022/12/21 03:00:51;;;;;;;177.77;19.35;;;;;;;;;;4810418;29;20486;-72
2022/12/21 03:06:24;;;;;;;139.52;18.95;;;;;;;;;;4827703;29;20157;-72
2022/12/21 03:08:50;;;;;;;128.88;17.75;;;;;;;;;;4813565;29;20495;-72
2022/12/21 03:11:16;;;;;;;180.95;20.33;;;;;;;;;;4827518;29;20225;-72
2022/12/21 03:13:48;;;;;;;128.48;17.02;;;;;;;;;;4802424;29;20583;-72
2022/12/21 03:16:21;;;;;;;179.23;18.58;;;;;;;;;;4802795;29;20140;-72
2022/12/21 03:18:47;;;;;;;176.90;18.17;;;;;;;;;;4827513;29;20126;-72
2022/12/21 03:21:32;;;;;;;133.75;17.75;;;;;;;;;;4812446;29;20050;-72
2022/12/21 03:24:01;;;;;;;129.93;17.85;;;;;;;;;;4806788;29;21714;-71
2022/12/21 03:26:31;;;;;;;274.80;24.02;;;;;;;;;;4812204;29;20649;-72
2022/12/21 03:28:59;;;;;;;173.13;17.75;;;;;;;;;;4799668;29;20053;-72
2022/12/21 03:31:28;;;;;;;263.42;21.27;;;;;;;;;;4809382;29;20097;-72
2022/12/21 03:33:57;;;;;;;155.90;18.88;;;;;;;;;;4811828;29;20056;-72
2022/12/21 03:36:28;;;;;;;198.88;19.30;;;;;;;;;;4809912;29;20053;-72
2022/12/21 03:38:58;;;;;;;189.13;18.10;;;;;;;;;;4819673;29;20045;-72
2022/12/21 03:41:29;;;;;;;211.45;23.70;;;;;;;;;;4823356;29;20396;-71
2022/12/21 03:43:55;;;;;;;255.90;24.85;;;;;;;;;;4805999;29;20072;-72
2022/12/21 03:46:24;;;;;;;164.20;22.80;;;;;;;;;;4822712;29;20807;-72
2022/12/21 03:48:59;;;;;;;218.80;21.83;;;;;;;;;;4813785;29;20172;-72
2022/12/21 03:51:32;;;;;;;158.98;21.25;;;;;;;;;;4804571;29;20069;-72
2022/12/21 03:54:02;;;;;;;299.48;26.73;;;;;;;;;;4823291;29;20072;-72
2022/12/21 03:56:30;;;;;;;169.95;18.55;;;;;;;;;;4817921;29;20085;-72
2022/12/21 03:58:57;;;;;;;113.95;16.52;;;;;;;;;;4796214;29;20568;-72
2022/12/21 04:01:33;;;;;;;127.47;17.30;;;;;;;;;;4818454;29;20324;-72
2022/12/21 04:04:03;;;;;;;219.27;20.65;;;;;;;;;;4822709;29;20050;-72
2022/12/21 04:06:32;;;;;;;89.15;14.43;;;;;;;;;;4808587;29;20061;-72
2022/12/21 04:08:58;;;;;;;227.35;22.98;;;;;;;;;;4810610;29;20292;-72
2022/12/21 04:14:12;;;;;;;156.23;18.08;;;;;;;;;;4793249;29;20375;-72
2022/12/21 04:16:38;;;;;;;115.07;15.35;;;;;;;;;;4802107;29;20495;-72
2022/12/21 04:21:49;;;;;;;165.27;19.15;;;;;;;;;;4804814;29;20099;-72
2022/12/21 04:29:44;;;;;;;157.18;18.77;;;;;;;;;;4811802;29;20068;-71
2022/12/21 04:32:10;;;;;;;133.65;15.38;;;;;;;;;;4808485;29;20083;-71
2022/12/21 04:34:36;;;;;;;206.80;17.92;;;;;;;;;;4817832;29;20053;-72
2022/12/21 04:39:47;;;;;;;293.73;19.27;;;;;;;;;;4801313;29;20149;-72
2022/12/21 04:42:13;;;;;;;160.55;17.55;;;;;;;;;;4802969;29;20081;-72
2022/12/21 04:44:39;;;;;;;281.98;19.92;;;;;;;;;;4820158;29;20137;-72
2022/12/21 04:47:05;;;;;;;200.70;18.63;;;;;;;;;;4825904;29;20089;-71
2022/12/21 04:49:31;;;;;;;193.15;16.60;;;;;;;;;;4824163;29;20514;-71
2022/12/21 04:51:57;;;;;;;226.10;21.23;;;;;;;;;;4825243;29;20093;-72
2022/12/21 04:54:24;;;;;;;242.15;20.67;;;;;;;;;;4811652;29;20085;-72
2022/12/21 04:56:50;;;;;;;141.57;14.57;;;;;;;;;;4808733;29;20458;-71
2022/12/21 04:59:16;;;;;;;161.30;15.70;;;;;;;;;;4825497;29;20041;-74
2022/12/21 05:01:42;;;;;;;184.25;17.50;;;;;;;;;;4823980;29;20049;-74
2022/12/21 05:04:10;;;;;;;160.07;15.50;;;;;;;;;;4809330;29;20137;-74
2022/12/21 05:06:36;;;;;;;189.15;15.27;;;;;;;;;;4795707;29;21615;-73
2022/12/21 05:09:02;;;;;;;220.10;19.98;;;;;;;;;;4796223;29;20050;-74
2022/12/21 05:11:28;;;;;;;178.18;17.50;;;;;;;;;;4815235;29;20050;-73
2022/12/21 05:13:54;;;;;;;214.45;13.68;;;;;;;;;;4827391;29;20054;-74
2022/12/21 05:16:22;;;;;;;170.25;13.75;;;;;;;;;;4816251;29;20346;-74
2022/12/21 05:18:48;;;;;;;268.30;17.60;;;;;;;;;;4819732;29;20049;-75
2022/12/21 05:21:14;;;;;;;138.65;12.30;;;;;;;;;;4814182;29;20045;-75
2022/12/21 05:23:40;;;;;;;122.30;13.60;;;;;;;;;;4803068;29;20513;-74
2022/12/21 05:26:08;;;;;;;110.65;13.35;;;;;;;;;;4806623;29;20164;-76
2022/12/21 05:28:34;;;;;;;127.55;13.25;;;;;;;;;;4798000;29;20128;-77
2022/12/21 05:31:00;;;;;;;240.27;20.15;;;;;;;;;;4824261;29;21033;-77
2022/12/21 05:33:26;;;;;;;256.00;20.58;;;;;;;;;;4814524;29;20447;-76
2022/12/21 05:35:52;;;;;;;314.02;21.67;;;;;;;;;;4821772;29;20057;-76
2022/12/21 05:38:18;;;;;;;160.23;13.90;;;;;;;;;;4793547;29;20064;-77
2022/12/21 05:40:47;;;;;;;247.00;17.48;;;;;;;;;;4807925;29;20100;-76
2022/12/21 05:43:13;;;;;;;174.98;15.32;;;;;;;;;;4809684;29;20151;-77
2022/12/21 05:45:39;;;;;;;212.85;17.30;;;;;;;;;;4811911;29;20499;-77
2022/12/21 05:48:06;;;;;;;223.32;17.30;;;;;;;;;;4824468;29;20049;-77
2022/12/21 05:50:32;;;;;;;186.68;16.80;;;;;;;;;;4825153;29;20408;-76
2022/12/21 05:52:58;;;;;;;214.77;17.23;;;;;;;;;;4819511;29;20156;-76
2022/12/21 05:55:24;;;;;;;171.75;13.95;;;;;;;;;;4816541;29;20054;-76
2022/12/21 05:57:50;;;;;;;200.10;17.73;;;;;;;;;;4828735;29;20045;-77
2022/12/21 06:00:16;;;;;;;192.80;19.55;;;;;;;;;;4813750;29;20050;-77
2022/12/21 06:02:43;;;;;;;238.68;21.63;;;;;;;;;;4794089;29;20708;-73
2022/12/21 06:05:15;;;;;;;201.55;15.63;;;;;;;;;;4828954;29;20580;-74
2022/12/21 06:07:41;;;;;;;82.25;11.63;;;;;;;;;;4815575;29;20990;-75
2022/12/21 06:10:07;;;;;;;138.70;13.30;;;;;;;;;;4802478;29;20487;-75
2022/12/21 06:12:33;;;;;;;155.50;13.30;;;;;;;;;;4823024;29;20085;-75
2022/12/21 06:14:59;;;;;;;196.18;15.10;;;;;;;;;;4812855;29;20049;-74
2022/12/21 06:17:29;;;;;;;181.55;14.73;;;;;;;;;;4817456;29;20125;-75
2022/12/21 06:19:55;;;;;;;170.70;14.50;;;;;;;;;;4810396;29;20163;-74
2022/12/21 06:22:21;;;;;;;200.82;16.05;;;;;;;;;;4806934;29;20144;-75
2022/12/21 06:24:47;;;;;;;241.25;16.25;;;;;;;;;;4814479;29;20050;-74
2022/12/21 06:27:14;;;;;;;229.98;17.98;;;;;;;;;;4821011;29;20596;-74
2022/12/21 06:29:40;;;;;;;221.18;19.23;;;;;;;;;;4820506;29;20045;-75
2022/12/21 06:32:06;;;;;;;149.27;13.43;;;;;;;;;;4813201;29;21674;-74
2022/12/21 06:34:32;;;;;;;202.65;18.00;;;;;;;;;;4817980;29;20107;-74
2022/12/21 06:36:58;;;;;;;163.63;16.30;;;;;;;;;;4805634;29;20081;-74
2022/12/21 06:39:24;;;;;;;173.02;15.63;;;;;;;;;;4816563;29;20121;-75
2022/12/21 06:41:50;;;;;;;149.95;14.90;;;;;;;;;;4804984;29;20057;-75
2022/12/21 06:44:16;;;;;;;169.90;16.40;;;;;;;;;;4812251;29;20045;-75
2022/12/21 06:46:42;;;;;;;178.85;16.70;;;;;;;;;;4815148;29;20137;-75
2022/12/21 06:49:08;;;;;;;177.02;16.63;;;;;;;;;;4818767;29;20042;-74
2022/12/21 06:51:34;;;;;;;101.20;13.57;;;;;;;;;;4822575;29;20132;-75
2022/12/21 06:54:01;;;;;;;129.43;14.05;;;;;;;;;;4818898;29;20053;-74
2022/12/21 06:56:30;;;;;;;146.40;16.15;;;;;;;;;;4835363;29;20053;-74
2022/12/21 06:58:56;;;;;;;202.75;17.83;;;;;;;;;;4818320;29;20061;-74
2022/12/21 07:01:24;;;;;;;140.75;15.82;;;;;;;;;;4813642;29;20077;-73
2022/12/21 07:03:50;;;;;;;212.38;19.40;;;;;;;;;;4806875;29;20054;-74
2022/12/21 07:06:17;;;;;;;173.88;17.00;;;;;;;;;;4815613;29;20051;-74
2022/12/21 07:08:44;;;;;;;155.23;19.60;;;;;;;;;;4815028;29;20762;-74
2022/12/21 07:11:11;;;;;;;185.73;17.45;;;;;;;;;;4821889;29;20511;-73
2022/12/21 07:13:39;;;;;;;146.48;17.17;;;;;;;;;;4817115;29;20064;-73
2022/12/21 07:16:06;;;;;;;174.07;18.52;;;;;;;;;;4832302;29;21900;-74
2022/12/21 07:18:32;;;;;;;228.48;18.77;;;;;;;;;;4814759;29;20132;-74
2022/12/21 07:20:59;;;;;;;216.60;19.08;;;;;;;;;;4832071;29;20049;-74
2022/12/21 07:23:28;;;;;;;146.10;15.32;;;;;;;;;;4815771;29;20495;-74
2022/12/21 07:25:56;;;;;;;145.52;17.10;;;;;;;;;;4814414;29;20053;-74
2022/12/21 07:28:22;;;;;;;183.50;18.08;;;;;;;;;;4802550;29;20061;-74
2022/12/21 07:30:49;;;;;;;174.45;19.08;;;;;;;;;;4816547;29;20058;-74
2022/12/21 07:33:18;;;;;;;238.68;21.85;;;;;;;;;;4813043;29;20064;-74
2022/12/21 07:35:45;;;;;;;166.73;21.23;;;;;;;;;;4829748;29;20072;-74
2022/12/21 07:38:11;;;;;;;218.32;20.77;;;;;;;;;;4814674;29;20604;-74
2022/12/21 07:40:37;;;;;;;211.07;20.38;;;;;;;;;;4816394;29;20069;-74
2022/12/21 07:43:10;;;;;;;180.82;21.50;;;;;;;;;;4816532;29;20068;-74
2022/12/21 07:45:39;;;;;;;205.30;20.85;;;;;;;;;;4813776;29;20100;-73
2022/12/21 07:48:05;;;;;;;221.93;25.30;;;;;;;;;;4829899;29;20112;-74
2022/12/21 07:50:32;;;;;;;239.13;26.13;;;;;;;;;;4810790;29;20052;-74
2022/12/21 07:52:58;;;;;;;212.23;24.15;;;;;;;;;;4814235;29;20585;-74
2022/12/21 07:55:25;;;;;;;189.05;21.48;;;;;;;;;;4810573;29;20046;-74
2022/12/21 07:57:51;;;;;;;135.30;21.10;;;;;;;;;;4829615;29;20558;-74
2022/12/21 08:00:17;;;;;;;183.90;21.58;;;;;;;;;;4822739;29;21359;-74
2022/12/21 08:02:46;;;;;;;186.10;22.05;;;;;;;;;;4816440;29;20041;-74
2022/12/21 08:05:13;;;;;;;238.63;24.30;;;;;;;;;;4814613;29;20049;-74
2022/12/21 08:07:39;;;;;;;178.07;23.30;;;;;;;;;;4796811;29;20461;-75
2022/12/21 08:10:05;;;;;;;257.45;30.02;;;;;;;;;;4815302;29;20409;-73
2022/12/21 08:12:31;;;;;;;155.48;21.45;;;;;;;;;;4807635;29;20054;-73
2022/12/21 08:14:58;;;;;;;246.80;25.85;;;;;;;;;;4819867;29;20506;-73
2022/12/21 08:17:24;;;;;;;223.85;25.90;;;;;;;;;;4818978;29;20070;-73
2022/12/21 08:19:50;;;;;;;221.00;25.38;;;;;;;;;;4815365;29;20283;-73
2022/12/21 08:22:16;;;;;;;217.48;25.65;;;;;;;;;;4801983;29;20929;-73
2022/12/21 08:24:42;;;;;;;273.40;29.98;;;;;;;;;;4811375;29;20052;-73
2022/12/21 08:27:09;;;;;;;275.15;26.63;;;;;;;;;;4798368;29;20181;-73
2022/12/21 08:29:36;;;;;;;246.52;32.30;;;;;;;;;;4814620;29;20041;-73
2022/12/21 08:32:03;;;;;;;254.75;32.08;;;;;;;;;;4817186;29;20148;-73
2022/12/21 08:34:29;;;;;;;207.85;29.45;;;;;;;;;;4814557;29;20052;-73
2022/12/21 08:36:56;;;;;;;174.57;27.17;;;;;;;;;;4810993;29;20050;-73
2022/12/21 08:39:23;;;;;;;210.35;27.77;;;;;;;;;;4830849;29;20149;-73
2022/12/21 08:41:49;;;;;;;197.57;31.48;;;;;;;;;;4823122;29;20069;-74
2022/12/21 08:44:15;;;;;;;194.00;30.60;;;;;;;;;;4832363;29;20636;-74
2022/12/21 08:46:41;;;;;;;164.73;28.85;;;;;;;;;;4817262;29;20116;-73
2022/12/21 08:49:07;;;;;;;150.40;27.35;;;;;;;;;;4808312;29;20084;-74
2022/12/21 08:51:34;;;;;;;175.23;27.30;;;;;;;;;;4786858;29;20167;-74
2022/12/21 08:54:00;;;;;;;104.45;22.25;;;;;;;;;;4825380;29;20049;-74
2022/12/21 08:56:27;;;;;;;159.68;28.10;;;;;;;;;;4827286;29;20129;-74
2022/12/21 08:58:53;;;;;;;190.05;29.40;;;;;;;;;;4815271;29;20530;-74
2022/12/21 09:01:20;;;;;;;166.63;27.00;;;;;;;;;;4802910;29;20783;-74
2022/12/21 09:03:46;;;;;;;245.23;32.88;;;;;;;;;;4805280;29;20049;-74
2022/12/21 09:06:12;;;;;;;264.05;33.45;;;;;;;;;;4813564;29;20395;-73
2022/12/21 09:08:39;;;;;;;194.63;30.60;;;;;;;;;;4803624;29;20113;-74
2022/12/21 09:11:09;;;;;;;220.35;29.83;;;;;;;;;;4825860;29;20526;-73
2022/12/21 09:13:36;;;;;;;288.25;30.48;;;;;;;;;;4816456;29;20053;-73
2022/12/21 09:16:03;;;;;;;236.30;30.67;;;;;;;;;;4817686;29;20064;-73
2022/12/21 09:18:29;;;;;;;186.00;27.33;;;;;;;;;;4813157;29;20046;-73
2022/12/21 09:20:55;;;;;;;216.38;29.08;;;;;;;;;;4825479;29;20392;-74
2022/12/21 09:23:22;;;;;;;198.38;27.88;;;;;;;;;;4806861;29;20997;-73
2022/12/21 09:25:48;;;;;;;139.50;24.92;;;;;;;;;;4816291;29;20132;-74
2022/12/21 09:28:17;;;;;;;228.05;35.45;;;;;;;;;;4810423;29;20061;-73
2022/12/21 09:30:44;;;;;;;220.00;31.20;;;;;;;;;;4799511;29;20050;-73
2022/12/21 09:33:10;;;;;;;169.73;28.35;;;;;;;;;;4828660;29;20090;-74
2022/12/21 09:35:37;;;;;;;185.27;29.25;;;;;;;;;;4817680;29;20046;-73
2022/12/21 09:38:03;;;;;;;234.40;35.05;;;;;;;;;;4817733;29;20045;-74
2022/12/21 09:40:30;;;;;;;227.63;33.42;;;;;;;;;;4812138;29;20058;-74
2022/12/21 09:43:15;;;;;;;204.73;34.20;;;;;;;;;;4814023;29;20053;-74
2022/12/21 09:45:54;;;;;;;177.88;32.63;;;;;;;;;;4819744;29;20049;-74
2022/12/21 09:48:27;;;;;;;173.02;33.75;;;;;;;;;;4813728;29;20081;-74
2022/12/21 09:50:57;;;;;;;142.65;31.98;;;;;;;;;;4809414;29;21702;-74
2022/12/21 09:53:28;;;;;;;161.93;33.67;;;;;;;;;;4816057;29;20056;-74
2022/12/21 09:55:56;;;;;;;164.77;33.35;;;;;;;;;;4805107;29;20106;-73
2022/12/21 09:58:25;;;;;;;161.32;34.40;;;;;;;;;;4809178;29;20098;-74
2022/12/21 10:00:55;;;;;;;142.73;33.25;;;;;;;;;;4798629;29;20640;-74
2022/12/21 10:03:32;;;;;;;119.75;27.48;;;;;;;;;;4824747;29;20060;-74
2022/12/21 10:06:15;;;;;;;147.90;34.08;;;;;;;;;;4797461;29;20104;-74
2022/12/21 10:08:44;;;;;;;155.07;34.33;;;;;;;;;;4811109;29;20049;-74
2022/12/21 10:11:16;;;;;;;148.82;34.55;;;;;;;;;;4812857;29;20546;-74
2022/12/21 10:13:53;;;;;;;141.68;32.25;;;;;;;;;;4825102;29;20127;-74
2022/12/21 10:16:19;;;;;;;124.55;30.67;;;;;;;;;;4826538;29;20077;-73
2022/12/21 10:18:48;;;;;;;131.75;37.30;;;;;;;;;;4813302;29;20360;-73
2022/12/21 10:21:26;;;;;;;129.43;33.53;;;;;;;;;;4812410;29;20415;-73
2022/12/21 10:23:54;;;;;;;131.77;33.97;;;;;;;;;;4802545;29;20084;-73
2022/12/21 10:26:25;;;;;;;92.70;27.00;;;;;;;;;;4810888;29;20053;-73
2022/12/21 10:28:58;;;;;;;113.97;31.75;;;;;;;;;;4797033;29;20045;-73
2022/12/21 10:31:31;;;;;;;122.50;33.92;;;;;;;;;;4826918;29;20053;-73
2022/12/21 10:33:58;;;;;;;121.57;35.50;;;;;;;;;;4807383;29;20076;-74
2022/12/21 10:36:32;;;;;;;108.55;32.92;;;;;;;;;;4810275;29;20406;-75
2022/12/21 10:38:59;;;;;;;117.75;31.50;;;;;;;;;;4812706;29;20528;-73
2022/12/21 10:41:32;;;;;;;114.38;33.10;;;;;;;;;;4837332;29;20493;-73
2022/12/21 10:43:59;;;;;;;117.07;31.98;;;;;;;;;;4824221;29;20376;-74
2022/12/21 10:46:29;;;;;;;112.90;34.30;;;;;;;;;;4816365;29;20137;-74
2022/12/21 10:48:57;;;;;;;81.78;26.23;;;;;;;;;;4816057;29;21376;-73
2022/12/21 10:51:29;;;;;;;83.10;23.83;;;;;;;;;;4825137;29;20049;-74
2022/12/21 10:54:05;;;;;;;101.18;31.05;;;;;;;;;;4819662;29;20100;-74
2022/12/21 10:56:36;;;;;;;106.30;34.63;;;;;;;;;;4832824;29;20490;-74
2022/12/21 10:59:25;;;;;;;80.40;26.23;;;;;;;;;;4818118;29;20115;-74
2022/12/21 11:01:52;;;;;;;92.72;33.92;;;;;;;;;;4810496;29;20177;-75
2022/12/21 11:04:24;;;;;;;105.45;31.75;;;;;;;;;;4819845;29;20053;-74
2022/12/21 11:07:01;;;;;;;98.65;33.42;;;;;;;;;;4824109;29;20086;-74
2022/12/21 11:09:33;;;;;;;101.68;34.42;;;;;;;;;;4831674;29;20195;-74
2022/12/21 11:12:12;;;;;;;99.13;33.30;;;;;;;;;;4814434;29;20061;-74
2022/12/21 11:14:38;;;;;;;87.47;32.15;;;;;;;;;;4815765;29;20057;-74
2022/12/21 11:17:04;;;;;;;93.80;32.35;;;;;;;;;;4821479;29;20045;-74
2022/12/21 11:19:34;;;;;;;85.75;31.65;;;;;;;;;;4820978;29;20052;-75
2022/12/21 11:22:00;;;;;;;80.13;32.13;;;;;;;;;;4821799;29;20534;-74
2022/12/21 11:24:28;;;;;;;76.20;29.55;;;;;;;;;;4814179;29;20057;-74
2022/12/21 11:27:12;;;;;;;82.55;32.80;;;;;;;;;;4811814;29;21005;-74
2022/12/21 11:29:56;;;;;;;72.30;28.37;;;;;;;;;;4819002;29;20060;-75
2022/12/21 11:32:22;;;;;;;;;;;;;;;;;;4833238;29;20389;-75
2022/12/21 11:34:50;;;;;;;75.05;30.17;;;;;;;;;;4815012;29;19935;-74
2022/12/21 11:37:35;;;;;;;64.68;26.33;;;;;;;;;;4800267;29;20077;-75
2022/12/21 11:40:14;;;;;;;78.95;30.92;;;;;;;;;;4790610;29;20060;-75
2022/12/21 11:42:54;;;;;;;53.10;24.83;;;;;;;;;;4827940;29;20049;-74
2022/12/21 11:45:25;;;;;;;62.00;27.98;;;;;;;;;;4837001;29;20090;-74
2022/12/21 11:47:51;;;;;;;55.70;27.17;;;;;;;;;;4837303;29;20049;-75
2022/12/21 11:50:21;;;;;;;50.50;22.73;;;;;;;;;;4820215;29;20536;-76
2022/12/21 11:52:50;;;;;;;50.92;23.50;;;;;;;;;;4824499;29;20068;-75
2022/12/21 11:55:16;;;;;;;48.13;22.98;;;;;;;;;;4810077;29;20110;-74
2022/12/21 11:57:54;;;;;;;50.28;21.10;;;;;;;;;;4820491;29;20148;-74
2022/12/21 12:00:21;;;;;;;41.28;21.17;;;;;;;;;;4817455;29;20053;-74
2022/12/21 12:02:50;;;;;;;45.67;21.00;;;;;;;;;;4830093;29;20085;-74
2022/12/21 12:05:35;;;;;;;37.38;18.60;;;;;;;;;;4818749;29;20065;-74
2022/12/21 12:08:04;;;;;;;34.85;17.48;;;;;;;;;;4814458;29;20072;-74
2022/12/21 12:10:33;;;;;;;34.65;17.20;;;;;;;;;;4812440;29;20588;-74
2022/12/21 12:13:05;;;;;;;35.42;18.73;;;;;;;;;;4798275;29;20475;-75
2022/12/21 12:15:31;;;;;;;35.88;15.48;;;;;;;;;;4813965;29;20072;-75
2022/12/21 12:18:17;;;;;;;27.30;15.23;;;;;;;;;;4812294;29;20049;-75
2022/12/21 12:20:51;;;;;;;30.83;16.05;;;;;;;;;;4815842;29;21344;-74
2022/12/21 12:23:17;;;;;;;34.28;15.82;;;;;;;;;;4814695;29;20443;-74
2022/12/21 12:25:53;;;;;;;38.90;15.82;;;;;;;;;;4818308;29;20076;-75
2022/12/21 12:28:37;;;;;;;33.60;15.63;;;;;;;;;;4820324;29;20128;-75
2022/12/21 12:31:03;;;;;;;;;;;;;;;;;;4828422;29;20057;-75
2022/12/21 12:33:42;;;;;;;34.88;16.80;;;;;;;;;;4812649;29;19928;-75
2022/12/21 12:36:16;;;;;;;35.40;16.88;;;;;;;;;;4806361;29;20050;-73
2022/12/21 12:38:50;;;;;;;32.85;14.57;;;;;;;;;;4828247;29;20069;-74
2022/12/21 12:41:38;;;;;;;29.90;14.95;;;;;;;;;;4807021;29;20060;-75
2022/12/21 12:44:05;;;;;;;32.45;15.90;;;;;;;;;;4789326;29;20069;-76
2022/12/21 12:46:40;;;;;;;30.02;16.02;;;;;;;;;;4786796;29;20464;-74
2022/12/21 12:49:15;;;;;;;30.98;16.67;;;;;;;;;;4798489;29;20118;-74
2022/12/21 12:51:46;;;;;;;31.58;15.73;;;;;;;;;;4806863;29;20050;-74
2022/12/21 12:54:18;;;;;;;37.63;16.35;;;;;;;;;;4801731;29;20141;-74
2022/12/21 12:56:51;;;;;;;38.25;17.60;;;;;;;;;;4816759;29;20057;-74
2022/12/21 12:59:23;;;;;;;33.53;15.50;;;;;;;;;;4806979;29;20053;-74
2022/12/21 13:01:57;;;;;;;38.03;16.40;;;;;;;;;;4800985;29;20376;-75
2022/12/21 13:04:42;;;;;;;34.97;14.50;;;;;;;;;;4812372;29;20681;-75
2022/12/21 13:07:25;;;;;;;40.50;17.25;;;;;;;;;;4792556;29;20133;-75
2022/12/21 13:10:01;;;;;;;33.20;15.53;;;;;;;;;;4806628;29;20482;-75
2022/12/21 13:12:59;;;;;;;41.83;15.98;;;;;;;;;;4794496;29;20062;-75
2022/12/21 13:15:25;;;;;;;30.33;13.65;;;;;;;;;;4768562;29;20064;-74
2022/12/21 13:18:01;;;;;;;38.60;15.95;;;;;;;;;;4802418;29;20073;-74
2022/12/21 13:20:28;;;;;;;38.08;16.08;;;;;;;;;;4801536;29;20057;-74
2022/12/21 13:22:56;;;;;;;37.97;15.10;;;;;;;;;;4806945;29;20104;-75
2022/12/21 13:25:35;;;;;;;39.53;15.63;;;;;;;;;;4784153;29;20057;-74
2022/12/21 13:28:01;;;;;;;41.33;13.93;;;;;;;;;;4815078;29;20760;-75
2022/12/21 13:30:28;;;;;;;33.85;14.32;;;;;;;;;;4804131;29;20081;-76
2022/12/21 13:32:57;;;;;;;37.20;14.07;;;;;;;;;;4805071;29;20113;-75
2022/12/21 13:35:29;;;;;;;38.03;13.70;;;;;;;;;;4799576;29;20049;-74
2022/12/21 13:38:09;;;;;;;36.35;14.38;;;;;;;;;;4796173;29;20054;-74
2022/12/21 13:40:40;;;;;;;40.67;16.08;;;;;;;;;;4798789;29;20167;-74
2022/12/21 13:43:12;;;;;;;36.00;14.45;;;;;;;;;;4818492;29;20050;-74
2022/12/21 13:45:38;;;;;;;35.97;13.55;;;;;;;;;;4815494;29;20119;-75
2022/12/21 13:48:06;;;;;;;29.15;13.35;;;;;;;;;;4818624;29;20080;-75
2022/12/21 13:50:34;;;;;;;36.38;15.52;;;;;;;;;;4828828;29;20058;-75
2022/12/21 13:53:04;;;;;;;41.92;15.88;;;;;;;;;;4823308;29;20046;-75
2022/12/21 13:55:49;;;;;;;44.08;15.80;;;;;;;;;;4812779;29;20203;-74
2022/12/21 13:58:26;;;;;;;40.03;16.42;;;;;;;;;;4817677;29;20050;-74
2022/12/21 14:00:57;;;;;;;36.28;16.75;;;;;;;;;;4819190;29;20062;-74
2022/12/21 14:03:23;;;;;;;35.72;16.67;;;;;;;;;;4815852;29;20081;-75
2022/12/21 14:05:55;;;;;;;36.78;17.27;;;;;;;;;;4826650;29;20050;-75
2022/12/21 14:08:41;;;;;;;36.13;17.55;;;;;;;;;;4820666;29;20097;-75
2022/12/21 14:11:25;;;;;;;28.38;15.15;;;;;;;;;;4816254;29;20058;-74
2022/12/21 14:13:51;;;;;;;41.63;19.13;;;;;;;;;;4816057;29;20512;-74
2022/12/21 14:16:20;;;;;;;37.33;18.45;;;;;;;;;;4807491;29;20104;-73
2022/12/21 14:18:52;;;;;;;43.88;18.90;;;;;;;;;;4815414;29;20053;-74
2022/12/21 14:21:23;;;;;;;44.42;20.92;;;;;;;;;;4816596;29;20054;-73
2022/12/21 14:23:51;;;;;;;33.08;16.77;;;;;;;;;;4820364;29;20403;-74
2022/12/21 14:26:37;;;;;;;35.15;18.70;;;;;;;;;;4811008;29;20467;-75
2022/12/21 14:29:10;;;;;;;42.92;20.73;;;;;;;;;;4826409;29;20185;-74
2022/12/21 14:31:37;;;;;;;35.75;18.02;;;;;;;;;;4821779;29;20786;-74
2022/12/21 14:34:07;;;;;;;33.47;16.08;;;;;;;;;;4810316;29;20069;-74
2022/12/21 14:36:34;;;;;;;39.55;20.60;;;;;;;;;;4821028;29;20058;-75
2022/12/21 14:39:00;;;;;;;26.80;15.43;;;;;;;;;;4818462;29;20050;-74
2022/12/21 14:41:36;;;;;;;36.67;17.95;;;;;;;;;;4813471;29;20563;-74